Time;durP1;ratioP1;P1;durP2;ratioP2;P2;SDS_P1;SDS_P2;PMS_P1;PMS_P2;Temp;Humidity;BMP_temperature;BMP_pressure;BME280_temperature;BME280_humidity;BME280_pressure;Samples;Min_cycle;Max_cycle;Signal;HPM_P1;HPM_P2
2022/12/04 00:01:37;;;;;;;15.47;10.90;;;;;;;;;;5045007;28;20208;-70
2022/12/04 00:04:05;;;;;;;21.07;14.90;;;;;;;;;;5050722;28;20203;-71
2022/12/04 00:06:33;;;;;;;16.77;12.90;;;;;;;;;;5050766;28;20308;-72
2022/12/04 00:09:01;;;;;;;16.57;12.40;;;;;;;;;;5050492;28;20203;-70
2022/12/04 00:11:30;;;;;;;17.10;12.50;;;;;;;;;;5049983;28;20430;-70
2022/12/04 00:13:58;;;;;;;15.53;11.47;;;;;;;;;;5048500;28;20199;-69
2022/12/04 00:16:26;;;;;;;15.40;11.63;;;;;;;;;;5050461;28;20196;-70
2022/12/04 00:18:53;;;;;;;16.87;12.03;;;;;;;;;;5047160;28;20316;-71
2022/12/04 00:21:21;;;;;;;15.27;11.13;;;;;;;;;;5050269;28;20200;-69
2022/12/04 00:23:48;;;;;;;14.97;11.37;;;;;;;;;;5048661;28;20203;-69
2022/12/04 00:26:16;;;;;;;14.73;10.83;;;;;;;;;;5050249;28;20196;-70
2022/12/04 00:28:44;;;;;;;15.13;11.23;;;;;;;;;;5043807;28;20223;-70
2022/12/04 00:31:13;;;;;;;15.67;12.03;;;;;;;;;;5048979;28;20282;-69
2022/12/04 00:33:40;;;;;;;16.40;10.87;;;;;;;;;;5046572;28;20204;-69
2022/12/04 00:36:08;;;;;;;15.73;11.37;;;;;;;;;;5050619;28;20211;-69
2022/12/04 00:38:36;;;;;;;15.33;11.23;;;;;;;;;;5050804;28;20207;-70
2022/12/04 00:41:03;;;;;;;15.47;10.97;;;;;;;;;;5050759;28;20210;-71
2022/12/04 00:43:31;;;;;;;15.10;11.43;;;;;;;;;;5050965;28;20196;-71
2022/12/04 00:45:59;;;;;;;14.33;10.50;;;;;;;;;;5050159;28;20207;-70
2022/12/04 00:48:27;;;;;;;15.60;11.20;;;;;;;;;;5049391;28;20204;-70
2022/12/04 00:50:54;;;;;;;14.47;10.60;;;;;;;;;;5049611;28;20203;-70
2022/12/04 00:53:21;;;;;;;16.00;10.90;;;;;;;;;;5047742;28;20262;-69
2022/12/04 00:55:48;;;;;;;14.10;10.20;;;;;;;;;;5048368;28;20223;-69
2022/12/04 00:58:16;;;;;;;14.53;10.40;;;;;;;;;;5049916;28;20203;-70
2022/12/04 01:00:43;;;;;;;13.37;10.43;;;;;;;;;;5050514;28;20254;-69
2022/12/04 01:03:12;;;;;;;13.10;10.37;;;;;;;;;;5047443;28;20209;-71
2022/12/04 01:05:39;;;;;;;13.67;9.80;;;;;;;;;;5049851;28;20207;-70
2022/12/04 01:08:06;;;;;;;12.60;9.73;;;;;;;;;;5049932;28;20207;-71
2022/12/04 01:10:34;;;;;;;12.87;10.03;;;;;;;;;;5048777;28;20199;-68
2022/12/04 01:13:01;;;;;;;12.83;10.00;;;;;;;;;;5048960;28;20203;-70
2022/12/04 01:15:28;;;;;;;13.57;10.63;;;;;;;;;;5050005;28;20191;-70
2022/12/04 01:17:55;;;;;;;16.57;11.67;;;;;;;;;;5048535;28;20215;-69
2022/12/04 01:20:24;;;;;;;14.80;11.37;;;;;;;;;;5048757;28;20235;-69
2022/12/04 01:22:51;;;;;;;13.50;10.20;;;;;;;;;;5048036;28;20207;-70
2022/12/04 01:25:18;;;;;;;14.10;10.00;;;;;;;;;;5048897;28;20246;-70
2022/12/04 01:27:45;;;;;;;14.20;10.37;;;;;;;;;;5048460;28;20231;-70
2022/12/04 01:30:13;;;;;;;13.13;10.00;;;;;;;;;;5048182;28;20295;-70
2022/12/04 01:32:40;;;;;;;16.07;11.77;;;;;;;;;;5047774;28;20214;-70
2022/12/04 01:35:07;;;;;;;24.80;16.90;;;;;;;;;;5048625;28;20206;-70
2022/12/04 01:37:36;;;;;;;18.30;13.50;;;;;;;;;;5047841;28;20273;-70
2022/12/04 01:40:03;;;;;;;16.33;11.43;;;;;;;;;;5046453;28;20231;-70
2022/12/04 01:42:31;;;;;;;14.73;11.70;;;;;;;;;;5045778;28;20231;-69
2022/12/04 01:45:17;;;;;;;15.57;11.77;;;;;;;;;;5049852;28;20214;-69
2022/12/04 01:47:44;;;;;;;14.37;10.40;;;;;;;;;;5049524;28;20214;-68
2022/12/04 01:50:11;;;;;;;13.50;10.50;;;;;;;;;;5050078;28;20249;-71
2022/12/04 01:52:40;;;;;;;14.33;10.30;;;;;;;;;;5049665;28;20303;-69
2022/12/04 01:55:08;;;;;;;12.47;9.87;;;;;;;;;;5044046;28;20207;-69
2022/12/04 01:57:37;;;;;;;11.80;9.60;;;;;;;;;;5052818;28;20222;-69
2022/12/04 02:00:07;;;;;;;13.07;9.27;;;;;;;;;;5048703;28;20226;-72
2022/12/04 02:02:35;;;;;;;11.03;8.50;;;;;;;;;;5050116;28;20207;-69
2022/12/04 02:05:03;;;;;;;12.93;9.60;;;;;;;;;;5052333;28;20207;-69
2022/12/04 02:07:30;;;;;;;10.67;8.73;;;;;;;;;;5050854;28;20206;-70
2022/12/04 02:10:02;;;;;;;10.70;8.33;;;;;;;;;;5049410;28;20195;-72
2022/12/04 02:12:33;;;;;;;11.63;8.53;;;;;;;;;;5049331;28;20200;-72
2022/12/04 02:15:04;;;;;;;13.27;9.10;;;;;;;;;;5051157;28;20208;-71
2022/12/04 02:17:38;;;;;;;11.57;8.53;;;;;;;;;;5051744;28;20212;-71
2022/12/04 02:20:14;;;;;;;10.60;8.97;;;;;;;;;;5049066;28;20222;-71
2022/12/04 02:22:52;;;;;;;10.63;8.87;;;;;;;;;;5050693;28;20203;-71
2022/12/04 02:25:24;;;;;;;10.40;8.83;;;;;;;;;;5050162;28;20206;-71
2022/12/04 02:27:59;;;;;;;9.90;8.77;;;;;;;;;;5049706;28;20261;-70
2022/12/04 02:30:27;;;;;;;9.97;8.83;;;;;;;;;;5049826;28;20225;-71
2022/12/04 02:32:59;;;;;;;11.07;8.43;;;;;;;;;;5050122;28;20199;-71
2022/12/04 02:35:28;;;;;;;10.67;8.83;;;;;;;;;;5051143;28;20195;-72
2022/12/04 02:37:57;;;;;;;11.87;9.20;;;;;;;;;;5050668;28;20203;-71
2022/12/04 02:40:27;;;;;;;12.27;8.77;;;;;;;;;;5047332;28;20223;-69
2022/12/04 02:42:58;;;;;;;10.47;8.90;;;;;;;;;;5048330;28;20210;-69
2022/12/04 02:45:27;;;;;;;10.67;8.60;;;;;;;;;;5049354;28;20200;-69
2022/12/04 02:47:55;;;;;;;10.73;8.87;;;;;;;;;;5051796;28;20216;-71
2022/12/04 02:50:24;;;;;;;10.93;8.97;;;;;;;;;;5053200;28;20219;-71
2022/12/04 02:52:53;;;;;;;11.73;9.17;;;;;;;;;;5047567;28;20206;-70
2022/12/04 02:55:22;;;;;;;11.30;8.90;;;;;;;;;;5050679;28;20206;-71
2022/12/04 02:57:50;;;;;;;11.73;9.30;;;;;;;;;;5051430;28;20211;-70
2022/12/04 03:00:20;;;;;;;10.70;9.13;;;;;;;;;;5051187;28;20219;-71
2022/12/04 03:02:49;;;;;;;11.10;9.17;;;;;;;;;;5050516;28;20211;-71
2022/12/04 03:05:17;;;;;;;10.77;8.60;;;;;;;;;;5050006;28;20212;-70
2022/12/04 03:07:46;;;;;;;11.80;9.23;;;;;;;;;;5050931;28;20225;-70
2022/12/04 03:10:16;;;;;;;12.63;9.10;;;;;;;;;;5049707;28;20207;-70
2022/12/04 03:12:44;;;;;;;11.27;9.80;;;;;;;;;;5050948;28;20209;-69
2022/12/04 03:15:15;;;;;;;10.57;8.83;;;;;;;;;;5051859;28;20206;-70
2022/12/04 03:17:46;;;;;;;11.80;9.47;;;;;;;;;;5048914;28;20207;-70
2022/12/04 03:20:15;;;;;;;10.57;9.03;;;;;;;;;;5051192;28;20215;-69
2022/12/04 03:22:44;;;;;;;12.03;9.90;;;;;;;;;;5050130;28;20207;-70
2022/12/04 03:25:12;;;;;;;11.37;9.33;;;;;;;;;;5047926;28;20202;-69
2022/12/04 03:27:42;;;;;;;11.40;9.53;;;;;;;;;;5050948;28;20234;-69
2022/12/04 03:30:10;;;;;;;12.33;9.23;;;;;;;;;;5052104;28;20200;-69
2022/12/04 03:32:40;;;;;;;11.63;9.50;;;;;;;;;;5048478;28;20214;-69
2022/12/04 03:35:12;;;;;;;12.77;9.47;;;;;;;;;;5049844;28;20210;-69
2022/12/04 03:37:41;;;;;;;12.77;9.53;;;;;;;;;;5051418;28;20265;-70
2022/12/04 03:40:15;;;;;;;11.90;9.00;;;;;;;;;;5049975;28;20230;-70
2022/12/04 03:42:44;;;;;;;13.97;9.67;;;;;;;;;;5050284;28;20195;-70
2022/12/04 03:45:16;;;;;;;11.50;9.13;;;;;;;;;;5045545;28;20210;-69
2022/12/04 03:47:46;;;;;;;13.40;9.80;;;;;;;;;;5050196;28;20211;-70
2022/12/04 03:50:17;;;;;;;11.60;8.90;;;;;;;;;;5051544;28;20262;-71
2022/12/04 03:52:47;;;;;;;13.43;10.70;;;;;;;;;;5051075;28;20223;-70
2022/12/04 03:55:20;;;;;;;12.10;8.90;;;;;;;;;;5049092;28;20203;-70
2022/12/04 03:57:48;;;;;;;12.53;10.27;;;;;;;;;;5050779;28;20316;-69
2022/12/04 04:00:17;;;;;;;12.23;9.87;;;;;;;;;;5049082;28;20221;-70
2022/12/04 04:02:46;;;;;;;12.53;9.60;;;;;;;;;;5045969;28;20209;-70
2022/12/04 04:05:15;;;;;;;11.10;9.00;;;;;;;;;;5047870;28;20205;-70
2022/12/04 04:07:44;;;;;;;13.03;10.00;;;;;;;;;;5050933;28;20207;-69
2022/12/04 04:10:14;;;;;;;12.20;10.10;;;;;;;;;;5048219;28;20202;-70
2022/12/04 04:12:44;;;;;;;12.57;9.87;;;;;;;;;;5049267;28;20207;-69
2022/12/04 04:26:19;;;;;;;13.40;10.07;;;;;;;;;;5046393;28;20240;-70
2022/12/04 04:28:46;;;;;;;12.97;9.40;;;;;;;;;;5049668;28;20235;-70
2022/12/04 04:31:23;;;;;;;13.30;10.00;;;;;;;;;;5041315;28;20210;-70
2022/12/04 04:33:55;;;;;;;11.57;9.13;;;;;;;;;;5048824;28;20211;-71
2022/12/04 04:36:28;;;;;;;12.77;10.00;;;;;;;;;;5050402;28;20210;-69
2022/12/04 04:39:01;;;;;;;12.50;9.47;;;;;;;;;;5049709;28;20211;-69
2022/12/04 04:41:31;;;;;;;11.73;9.43;;;;;;;;;;5050140;28;20216;-69
2022/12/04 04:44:01;;;;;;;11.93;9.03;;;;;;;;;;5052282;28;20211;-70
2022/12/04 04:46:30;;;;;;;11.37;8.97;;;;;;;;;;5048750;28;20203;-70
2022/12/04 04:48:58;;;;;;;12.07;9.87;;;;;;;;;;5049543;28;20203;-70
2022/12/04 04:51:28;;;;;;;12.20;9.67;;;;;;;;;;5048637;28;20195;-70
2022/12/04 04:53:57;;;;;;;12.23;9.23;;;;;;;;;;5046486;28;20203;-71
2022/12/04 04:56:24;;;;;;;13.33;9.60;;;;;;;;;;5050614;28;20199;-71
2022/12/04 04:58:52;;;;;;;12.67;9.57;;;;;;;;;;5050703;28;20199;-72
2022/12/04 05:01:20;;;;;;;13.23;9.80;;;;;;;;;;5046379;28;20225;-70
2022/12/04 05:03:47;;;;;;;13.77;10.03;;;;;;;;;;5046363;28;20222;-69
2022/12/04 05:06:15;;;;;;;14.13;10.30;;;;;;;;;;5049686;28;20211;-71
2022/12/04 05:08:44;;;;;;;11.97;9.77;;;;;;;;;;5047865;28;20209;-70
2022/12/04 05:11:12;;;;;;;12.93;9.67;;;;;;;;;;5047755;28;20249;-72
2022/12/04 05:13:39;;;;;;;12.97;10.30;;;;;;;;;;5046910;28;20209;-72
2022/12/04 05:16:07;;;;;;;12.90;9.97;;;;;;;;;;5050659;28;20209;-71
2022/12/04 05:18:35;;;;;;;14.37;9.93;;;;;;;;;;5051965;28;20203;-72
2022/12/04 05:21:04;;;;;;;13.33;9.60;;;;;;;;;;5045186;28;20226;-71
2022/12/04 05:23:31;;;;;;;11.53;9.33;;;;;;;;;;5045988;28;20211;-71
2022/12/04 05:26:03;;;;;;;11.23;9.10;;;;;;;;;;5038163;28;20204;-71
2022/12/04 05:28:31;;;;;;;13.13;10.03;;;;;;;;;;5049508;28;20239;-71
2022/12/04 05:30:58;;;;;;;13.40;10.33;;;;;;;;;;5051000;28;20204;-71
2022/12/04 05:33:25;;;;;;;12.80;9.83;;;;;;;;;;5053234;28;20223;-71
2022/12/04 05:35:59;;;;;;;13.63;10.20;;;;;;;;;;5053796;28;20208;-69
2022/12/04 05:38:26;;;;;;;12.97;9.63;;;;;;;;;;5052911;28;20206;-69
2022/12/04 05:40:53;;;;;;;13.70;10.60;;;;;;;;;;5048947;28;20249;-69
2022/12/04 05:43:22;;;;;;;14.30;10.20;;;;;;;;;;5048545;28;20206;-69
2022/12/04 05:45:49;;;;;;;12.13;9.80;;;;;;;;;;5051306;28;20195;-69
2022/12/04 05:48:16;;;;;;;13.70;10.70;;;;;;;;;;5054207;28;20203;-69
2022/12/04 05:50:43;;;;;;;13.80;10.70;;;;;;;;;;5052535;28;20204;-69
2022/12/04 05:53:10;;;;;;;13.67;10.33;;;;;;;;;;5048571;28;20204;-70
2022/12/04 05:55:37;;;;;;;14.40;10.33;;;;;;;;;;5048828;28;20203;-70
2022/12/04 05:58:05;;;;;;;15.10;10.70;;;;;;;;;;5051530;28;20200;-71
2022/12/04 06:00:33;;;;;;;11.30;9.87;;;;;;;;;;5049215;28;20238;-69
2022/12/04 06:03:00;;;;;;;13.50;9.97;;;;;;;;;;5051429;28;20202;-70
2022/12/04 06:05:27;;;;;;;13.00;10.30;;;;;;;;;;5053528;28;20222;-68
2022/12/04 06:07:55;;;;;;;13.77;10.50;;;;;;;;;;5051664;28;20211;-71
2022/12/04 06:10:22;;;;;;;13.57;10.40;;;;;;;;;;5050240;28;20211;-71
2022/12/04 06:12:49;;;;;;;15.03;10.83;;;;;;;;;;5052684;28;20207;-70
2022/12/04 06:15:16;;;;;;;13.20;10.33;;;;;;;;;;5038528;28;20208;-70
2022/12/04 06:17:44;;;;;;;12.27;9.60;;;;;;;;;;5049134;28;20199;-71
2022/12/04 06:20:12;;;;;;;12.83;10.20;;;;;;;;;;5050644;28;20206;-72
2022/12/04 06:22:39;;;;;;;14.30;10.53;;;;;;;;;;5053027;28;20204;-71
2022/12/04 06:25:07;;;;;;;13.67;11.17;;;;;;;;;;5051504;28;20200;-69
2022/12/04 06:27:34;;;;;;;13.80;10.30;;;;;;;;;;5053209;28;20326;-70
2022/12/04 06:30:02;;;;;;;13.67;10.97;;;;;;;;;;5051424;28;20272;-70
2022/12/04 06:32:29;;;;;;;14.60;11.03;;;;;;;;;;5051614;28;20206;-70
2022/12/04 06:34:58;;;;;;;12.37;9.90;;;;;;;;;;5049731;28;20204;-70
2022/12/04 06:37:25;;;;;;;13.03;10.20;;;;;;;;;;5050865;28;20222;-70
2022/12/04 06:39:53;;;;;;;13.20;10.20;;;;;;;;;;5036497;28;20212;-70
2022/12/04 06:42:20;;;;;;;13.33;10.67;;;;;;;;;;5051561;28;20262;-70
2022/12/04 06:44:47;;;;;;;12.67;9.93;;;;;;;;;;5048252;28;20214;-70
2022/12/04 06:47:14;;;;;;;12.73;10.47;;;;;;;;;;5050898;28;20203;-70
2022/12/04 06:49:41;;;;;;;14.90;10.53;;;;;;;;;;5047820;28;20207;-70
2022/12/04 06:52:10;;;;;;;19.20;12.93;;;;;;;;;;5052459;28;20192;-70
2022/12/04 06:54:37;;;;;;;18.10;12.67;;;;;;;;;;5048919;28;20211;-69
2022/12/04 06:57:04;;;;;;;13.40;10.73;;;;;;;;;;5049314;28;20210;-70
2022/12/04 06:59:32;;;;;;;14.47;11.17;;;;;;;;;;5047161;28;20204;-69
2022/12/04 07:01:59;;;;;;;14.40;10.57;;;;;;;;;;5047638;28;20224;-69
2022/12/04 07:04:26;;;;;;;14.00;10.80;;;;;;;;;;5051807;28;20204;-71
2022/12/04 07:06:54;;;;;;;13.70;10.83;;;;;;;;;;5048890;28;20213;-71
2022/12/04 07:09:22;;;;;;;13.80;10.47;;;;;;;;;;5047009;28;20211;-71
2022/12/04 07:11:49;;;;;;;14.33;10.80;;;;;;;;;;5048665;28;20203;-70
2022/12/04 07:14:17;;;;;;;16.57;11.63;;;;;;;;;;5050233;28;20211;-72
2022/12/04 07:16:44;;;;;;;16.27;11.40;;;;;;;;;;5051066;28;20202;-69
2022/12/04 07:19:12;;;;;;;16.43;12.13;;;;;;;;;;5049297;28;20287;-69
2022/12/04 07:21:39;;;;;;;16.67;12.93;;;;;;;;;;5049432;28;20219;-69
2022/12/04 07:24:07;;;;;;;17.27;12.27;;;;;;;;;;5047673;28;20204;-69
2022/12/04 07:26:35;;;;;;;15.43;11.57;;;;;;;;;;5048004;28;20263;-70
2022/12/04 07:29:02;;;;;;;14.37;10.33;;;;;;;;;;5050940;28;20203;-69
2022/12/04 07:31:30;;;;;;;16.33;11.53;;;;;;;;;;5047177;28;20290;-69
2022/12/04 07:33:58;;;;;;;14.80;12.00;;;;;;;;;;5042467;28;20326;-70
2022/12/04 07:36:26;;;;;;;13.23;10.30;;;;;;;;;;5045216;28;20216;-70
2022/12/04 07:38:55;;;;;;;14.73;10.73;;;;;;;;;;5046688;28;20211;-69
2022/12/04 07:41:22;;;;;;;13.80;11.13;;;;;;;;;;5045354;28;20221;-69
2022/12/04 07:43:50;;;;;;;12.60;10.40;;;;;;;;;;5044691;28;20204;-69
2022/12/04 07:46:20;;;;;;;14.33;10.93;;;;;;;;;;5043357;28;20200;-69
2022/12/04 07:48:47;;;;;;;13.00;9.93;;;;;;;;;;5043954;28;20226;-69
2022/12/04 07:51:15;;;;;;;13.37;10.47;;;;;;;;;;5043547;28;20219;-69
2022/12/04 07:53:43;;;;;;;13.53;10.73;;;;;;;;;;5045170;28;20202;-69
2022/12/04 07:56:10;;;;;;;15.13;11.13;;;;;;;;;;5049807;28;20196;-69
2022/12/04 07:58:38;;;;;;;13.77;10.60;;;;;;;;;;5048030;28;20215;-69
2022/12/04 08:01:07;;;;;;;14.27;10.80;;;;;;;;;;5045875;28;20230;-69
2022/12/04 08:03:34;;;;;;;12.90;10.53;;;;;;;;;;5050102;28;20199;-70
2022/12/04 08:06:02;;;;;;;13.27;9.87;;;;;;;;;;5047233;28;20288;-70
2022/12/04 08:08:29;;;;;;;14.33;10.97;;;;;;;;;;5047821;28;20222;-70
2022/12/04 08:10:56;;;;;;;14.47;11.23;;;;;;;;;;5046471;28;20203;-70
2022/12/04 08:13:23;;;;;;;14.77;12.03;;;;;;;;;;5046840;28;20213;-71
2022/12/04 08:15:50;;;;;;;16.03;11.57;;;;;;;;;;5048432;28;20210;-68
2022/12/04 08:18:19;;;;;;;15.90;12.10;;;;;;;;;;5046984;28;20207;-71
2022/12/04 08:20:46;;;;;;;14.97;11.63;;;;;;;;;;5046124;28;20384;-70
2022/12/04 08:23:13;;;;;;;16.47;12.13;;;;;;;;;;5049316;28;20213;-71
2022/12/04 08:25:40;;;;;;;15.47;11.40;;;;;;;;;;5048584;28;20214;-71
2022/12/04 08:28:07;;;;;;;17.47;12.30;;;;;;;;;;5049373;28;20234;-71
2022/12/04 08:30:35;;;;;;;14.47;11.17;;;;;;;;;;5049213;28;20207;-69
2022/12/04 08:33:02;;;;;;;14.33;11.07;;;;;;;;;;5048656;28;20215;-69
2022/12/04 08:35:31;;;;;;;15.07;11.37;;;;;;;;;;5047323;28;20203;-69
2022/12/04 08:37:58;;;;;;;18.00;12.63;;;;;;;;;;5051646;28;20199;-70
2022/12/04 08:40:26;;;;;;;20.17;14.07;;;;;;;;;;5050363;28;20200;-71
2022/12/04 08:42:53;;;;;;;16.90;12.03;;;;;;;;;;5048999;28;20222;-70
2022/12/04 08:45:20;;;;;;;15.43;11.70;;;;;;;;;;5046067;28;20207;-70
2022/12/04 08:47:47;;;;;;;15.30;12.00;;;;;;;;;;5047919;28;20279;-70
2022/12/04 08:50:14;;;;;;;14.97;11.30;;;;;;;;;;5050234;28;20206;-69
2022/12/04 08:52:43;;;;;;;16.00;10.70;;;;;;;;;;5046711;28;20200;-70
2022/12/04 08:55:10;;;;;;;14.23;11.10;;;;;;;;;;5045654;28;20211;-70
2022/12/04 08:57:37;;;;;;;13.97;10.53;;;;;;;;;;5044424;28;20199;-69
2022/12/04 09:00:05;;;;;;;14.23;10.80;;;;;;;;;;5046941;28;20204;-69
2022/12/04 09:02:32;;;;;;;15.10;11.43;;;;;;;;;;5046174;28;20219;-71
2022/12/04 09:04:59;;;;;;;15.50;11.93;;;;;;;;;;5044061;28;20203;-70
2022/12/04 09:07:26;;;;;;;15.13;11.53;;;;;;;;;;5047060;28;20233;-71
2022/12/04 09:09:55;;;;;;;15.27;11.70;;;;;;;;;;5049066;28;20207;-69
2022/12/04 09:12:22;;;;;;;16.90;12.03;;;;;;;;;;5049322;28;20199;-70
2022/12/04 09:14:49;;;;;;;15.50;11.60;;;;;;;;;;5048916;28;20262;-70
2022/12/04 09:17:16;;;;;;;15.50;11.87;;;;;;;;;;5048051;28;20204;-70
2022/12/04 09:19:43;;;;;;;15.77;11.43;;;;;;;;;;5047247;28;20214;-69
2022/12/04 09:22:10;;;;;;;15.60;11.60;;;;;;;;;;5050372;28;20227;-71
2022/12/04 09:24:38;;;;;;;12.20;10.07;;;;;;;;;;5049667;28;20203;-70
2022/12/04 09:27:06;;;;;;;14.70;10.80;;;;;;;;;;5046686;28;20242;-69
2022/12/04 09:29:33;;;;;;;13.80;10.50;;;;;;;;;;5050697;28;20211;-70
2022/12/04 09:32:00;;;;;;;15.53;11.67;;;;;;;;;;5043552;28;20211;-70
2022/12/04 09:34:27;;;;;;;14.27;10.57;;;;;;;;;;5051909;28;20203;-70
2022/12/04 09:36:55;;;;;;;12.90;10.53;;;;;;;;;;5047344;28;20236;-70
2022/12/04 09:39:22;;;;;;;12.87;9.93;;;;;;;;;;5049997;28;20203;-70
2022/12/04 09:42:10;;;;;;;13.10;10.17;;;;;;;;;;5050283;28;20234;-70
2022/12/04 09:44:40;;;;;;;13.77;10.57;;;;;;;;;;5046579;28;20433;-70
2022/12/04 09:47:12;;;;;;;15.10;10.50;;;;;;;;;;5044810;28;20210;-71
2022/12/04 09:49:41;;;;;;;14.07;11.27;;;;;;;;;;5046819;28;20200;-71
2022/12/04 09:52:14;;;;;;;13.80;11.17;;;;;;;;;;5047397;28;20200;-70
2022/12/04 09:54:42;;;;;;;14.93;11.83;;;;;;;;;;5047973;28;20196;-71
2022/12/04 09:57:15;;;;;;;12.43;10.83;;;;;;;;;;5051610;28;20206;-72
2022/12/04 09:59:44;;;;;;;14.07;11.17;;;;;;;;;;5050538;28;20207;-71
2022/12/04 10:02:19;;;;;;;11.87;10.03;;;;;;;;;;5048573;28;20227;-68
2022/12/04 10:04:46;;;;;;;13.43;10.80;;;;;;;;;;5050804;28;20199;-71
2022/12/04 10:07:16;;;;;;;14.20;11.47;;;;;;;;;;5052891;28;20229;-71
2022/12/04 10:09:48;;;;;;;14.70;11.10;;;;;;;;;;5048090;28;20203;-72
2022/12/04 10:12:20;;;;;;;15.27;11.50;;;;;;;;;;5050891;28;20200;-71
2022/12/04 10:14:57;;;;;;;14.53;11.80;;;;;;;;;;5049931;28;20229;-71
2022/12/04 10:17:31;;;;;;;13.60;10.97;;;;;;;;;;5051696;28;20199;-71
2022/12/04 10:20:03;;;;;;;11.13;9.70;;;;;;;;;;5043900;28;20204;-70
2022/12/04 10:22:34;;;;;;;12.30;10.03;;;;;;;;;;5041152;28;20224;-70
2022/12/04 10:25:03;;;;;;;12.53;10.20;;;;;;;;;;5044362;28;20210;-70
2022/12/04 10:27:33;;;;;;;11.53;9.93;;;;;;;;;;5049240;28;20234;-71
2022/12/04 10:30:03;;;;;;;12.30;10.40;;;;;;;;;;5048186;28;20263;-71
2022/12/04 10:32:31;;;;;;;12.60;10.13;;;;;;;;;;5050918;28;20195;-70
2022/12/04 10:35:00;;;;;;;13.07;10.10;;;;;;;;;;5048953;28;20207;-71
2022/12/04 10:37:28;;;;;;;14.77;10.50;;;;;;;;;;5046556;28;20199;-71
2022/12/04 10:39:56;;;;;;;16.83;12.63;;;;;;;;;;5051289;28;20210;-71
2022/12/04 10:42:27;;;;;;;16.80;12.47;;;;;;;;;;5050148;28;20226;-71
2022/12/04 10:44:54;;;;;;;19.37;14.30;;;;;;;;;;5051148;28;20204;-71
2022/12/04 10:47:24;;;;;;;20.40;14.23;;;;;;;;;;5044439;28;20208;-71
2022/12/04 10:49:54;;;;;;;19.03;13.60;;;;;;;;;;5046321;28;20298;-69
2022/12/04 10:52:21;;;;;;;16.87;13.03;;;;;;;;;;5047286;28;20242;-71
2022/12/04 10:54:50;;;;;;;17.57;12.97;;;;;;;;;;5049687;28;20203;-70
2022/12/04 10:57:17;;;;;;;13.20;10.30;;;;;;;;;;5052172;28;20222;-71
2022/12/04 10:59:51;;;;;;;13.70;10.57;;;;;;;;;;5048559;28;20206;-71
2022/12/04 11:02:21;;;;;;;13.93;10.80;;;;;;;;;;5048359;28;20242;-72
2022/12/04 11:04:55;;;;;;;12.00;9.93;;;;;;;;;;5051500;28;20210;-71
2022/12/04 11:07:24;;;;;;;13.03;11.33;;;;;;;;;;5050393;28;20200;-69
2022/12/04 11:09:55;;;;;;;12.10;9.67;;;;;;;;;;5050884;28;20316;-71
2022/12/04 11:12:23;;;;;;;11.73;9.53;;;;;;;;;;5047400;28;20191;-70
2022/12/04 11:14:59;;;;;;;12.33;10.23;;;;;;;;;;5044977;28;20211;-71
2022/12/04 11:17:27;;;;;;;12.07;9.83;;;;;;;;;;5047835;28;20194;-71
2022/12/04 11:20:01;;;;;;;12.33;9.90;;;;;;;;;;5053338;28;20206;-71
2022/12/04 11:22:28;;;;;;;11.57;8.63;;;;;;;;;;5046928;28;20313;-71
2022/12/04 11:24:56;;;;;;;11.50;8.47;;;;;;;;;;5051710;28;20204;-70
2022/12/04 11:27:26;;;;;;;10.60;8.63;;;;;;;;;;5051406;28;20235;-72
2022/12/04 11:29:53;;;;;;;9.93;7.90;;;;;;;;;;5051400;28;20204;-72
2022/12/04 11:32:22;;;;;;;9.87;8.20;;;;;;;;;;5046206;28;20330;-72
2022/12/04 11:34:50;;;;;;;11.90;9.27;;;;;;;;;;5046982;28;20208;-71
2022/12/04 11:37:21;;;;;;;10.40;7.90;;;;;;;;;;5046270;28;20216;-71
2022/12/04 11:39:48;;;;;;;9.63;7.83;;;;;;;;;;5048524;28;20207;-71
2022/12/04 11:42:17;;;;;;;10.00;7.97;;;;;;;;;;5049956;28;20227;-71
2022/12/04 11:44:50;;;;;;;10.60;8.00;;;;;;;;;;5045181;28;20204;-71
2022/12/04 11:47:18;;;;;;;9.90;7.50;;;;;;;;;;5043960;28;20206;-71
2022/12/04 11:49:45;;;;;;;10.90;8.10;;;;;;;;;;5046817;28;20211;-70
2022/12/04 11:52:21;;;;;;;9.97;8.23;;;;;;;;;;5040773;28;20235;-70
2022/12/04 11:54:57;;;;;;;11.67;9.67;;;;;;;;;;5046653;28;20233;-71
2022/12/04 11:57:28;;;;;;;12.47;9.63;;;;;;;;;;5048667;28;20199;-70
2022/12/04 12:00:01;;;;;;;10.37;8.63;;;;;;;;;;5048037;28;20195;-71
2022/12/04 12:02:34;;;;;;;12.90;9.93;;;;;;;;;;5046588;28;20226;-70
2022/12/04 12:05:28;;;;;;;10.10;8.10;;;;;;;;;;5046543;28;20209;-71
2022/12/04 12:08:00;;;;;;;12.20;9.57;;;;;;;;;;5047888;28;20203;-71
2022/12/04 12:10:31;;;;;;;10.07;8.53;;;;;;;;;;5050680;28;20195;-70
2022/12/04 12:13:06;;;;;;;10.57;8.10;;;;;;;;;;5047759;28;20200;-71
2022/12/04 12:15:37;;;;;;;10.57;8.10;;;;;;;;;;5050723;28;20203;-70
2022/12/04 12:18:13;;;;;;;10.83;8.37;;;;;;;;;;5048298;28;20225;-71
2022/12/04 12:20:43;;;;;;;10.63;8.73;;;;;;;;;;5046658;28;20205;-71
2022/12/04 12:23:21;;;;;;;8.87;7.93;;;;;;;;;;5045132;28;20229;-71
2022/12/04 12:25:55;;;;;;;9.63;7.67;;;;;;;;;;5044020;28;20208;-71
2022/12/04 12:28:33;;;;;;;9.57;8.07;;;;;;;;;;5048618;28;20238;-72
2022/12/04 12:31:10;;;;;;;11.83;8.83;;;;;;;;;;5048502;28;20225;-71
2022/12/04 12:33:40;;;;;;;9.30;7.43;;;;;;;;;;5049329;28;20203;-70
2022/12/04 12:36:09;;;;;;;9.23;7.53;;;;;;;;;;5049726;28;20202;-71
2022/12/04 12:38:39;;;;;;;10.47;8.23;;;;;;;;;;5047613;28;20213;-70
2022/12/04 12:41:12;;;;;;;9.83;7.70;;;;;;;;;;5046496;28;20290;-71
2022/12/04 12:43:40;;;;;;;10.03;8.10;;;;;;;;;;5049466;28;20249;-71
2022/12/04 12:46:11;;;;;;;8.80;7.53;;;;;;;;;;5045548;28;20482;-71
2022/12/04 12:48:43;;;;;;;12.87;10.50;;;;;;;;;;5049014;28;20271;-72
2022/12/04 12:51:16;;;;;;;12.27;10.37;;;;;;;;;;5047937;28;20210;-72
2022/12/04 12:53:46;;;;;;;12.67;9.33;;;;;;;;;;5045574;28;20207;-71
2022/12/04 12:56:17;;;;;;;11.03;7.90;;;;;;;;;;5048526;28;20199;-71
2022/12/04 12:58:47;;;;;;;11.57;8.20;;;;;;;;;;5046063;28;20214;-72
2022/12/04 13:01:16;;;;;;;14.20;10.27;;;;;;;;;;5045854;28;20209;-72
2022/12/04 13:03:49;;;;;;;13.87;10.80;;;;;;;;;;5045856;28;20215;-72
2022/12/04 13:06:18;;;;;;;13.93;10.60;;;;;;;;;;5045302;28;20238;-72
2022/12/04 13:08:51;;;;;;;12.87;9.80;;;;;;;;;;5046651;28;20211;-72
2022/12/04 13:11:21;;;;;;;15.77;10.93;;;;;;;;;;5043832;28;20228;-71
2022/12/04 13:13:50;;;;;;;15.73;11.30;;;;;;;;;;5044757;28;20203;-72
2022/12/04 13:16:20;;;;;;;12.77;9.57;;;;;;;;;;5044263;28;20218;-71
2022/12/04 13:18:50;;;;;;;16.80;11.47;;;;;;;;;;5045079;28;20211;-71
2022/12/04 13:21:25;;;;;;;17.53;12.07;;;;;;;;;;5045397;28;20208;-71
2022/12/04 13:24:00;;;;;;;16.90;12.03;;;;;;;;;;5048625;28;20333;-71
2022/12/04 13:26:38;;;;;;;16.83;11.73;;;;;;;;;;5049438;28;20213;-71
2022/12/04 13:29:12;;;;;;;22.97;15.53;;;;;;;;;;5041577;28;20207;-71
2022/12/04 13:31:48;;;;;;;21.63;14.53;;;;;;;;;;5044102;28;20202;-70
2022/12/04 13:34:33;;;;;;;18.23;13.33;;;;;;;;;;5045822;28;20256;-71
2022/12/04 13:37:05;;;;;;;13.37;11.43;;;;;;;;;;5037114;28;20199;-70
2022/12/04 13:39:49;;;;;;;18.07;12.67;;;;;;;;;;5051015;28;20199;-70
2022/12/04 13:42:22;;;;;;;15.83;11.60;;;;;;;;;;5020600;28;20247;-71
2022/12/04 13:44:53;;;;;;;15.33;11.77;;;;;;;;;;5046915;28;20216;-71
2022/12/04 13:47:27;;;;;;;15.43;11.27;;;;;;;;;;5045204;28;20203;-71
2022/12/04 13:50:05;;;;;;;20.10;14.60;;;;;;;;;;5050764;28;20218;-71
2022/12/04 13:52:39;;;;;;;21.73;14.53;;;;;;;;;;5055236;28;20210;-70
2022/12/04 13:55:21;;;;;;;29.80;18.53;;;;;;;;;;5054757;28;20195;-71
2022/12/04 13:57:54;;;;;;;49.00;28.63;;;;;;;;;;5050364;28;20210;-70
2022/12/04 14:00:27;;;;;;;26.17;16.67;;;;;;;;;;5054250;28;20203;-71
2022/12/04 14:02:55;;;;;;;27.43;17.43;;;;;;;;;;5054793;28;20254;-71
2022/12/04 14:05:27;;;;;;;30.00;20.07;;;;;;;;;;5054589;28;20211;-71
2022/12/04 14:07:59;;;;;;;27.97;18.23;;;;;;;;;;5053634;28;20206;-71
2022/12/04 14:10:28;;;;;;;24.60;17.47;;;;;;;;;;5040108;28;20215;-71
2022/12/04 14:13:00;;;;;;;19.13;13.10;;;;;;;;;;5049296;28;20214;-71
2022/12/04 14:15:29;;;;;;;18.30;12.77;;;;;;;;;;5054836;28;20242;-71
2022/12/04 14:18:00;;;;;;;16.70;11.80;;;;;;;;;;5054323;28;20215;-71
2022/12/04 14:20:28;;;;;;;15.20;11.10;;;;;;;;;;5042122;28;20210;-71
2022/12/04 14:22:55;;;;;;;13.43;10.33;;;;;;;;;;5037961;28;20226;-71
2022/12/04 14:25:24;;;;;;;19.17;13.23;;;;;;;;;;5054155;28;20206;-71
2022/12/04 14:27:51;;;;;;;18.00;12.93;;;;;;;;;;5053865;28;20333;-71
2022/12/04 14:30:21;;;;;;;18.70;13.30;;;;;;;;;;5054278;28;20298;-70
2022/12/04 14:32:50;;;;;;;21.67;14.37;;;;;;;;;;5054235;28;20200;-70
2022/12/04 14:35:18;;;;;;;18.77;12.83;;;;;;;;;;5054561;28;20212;-71
2022/12/04 14:37:48;;;;;;;20.80;13.90;;;;;;;;;;5053528;28;20219;-70
2022/12/04 14:40:17;;;;;;;23.40;15.20;;;;;;;;;;5051562;28;20214;-71
2022/12/04 14:42:48;;;;;;;18.80;13.33;;;;;;;;;;5053551;28;20199;-71
2022/12/04 14:45:21;;;;;;;16.47;12.23;;;;;;;;;;5053846;28;20203;-71